Aérodrome :
LOGIN :

S'inscrire | Disclaimer

   EN    FR    IT 

 










Légende :    VFR   VFR Marginal   IFR   IFR Intensif   IFR Très Intensif
Visi : 
Plafond : 
>= 8 km
>= 3000ft
5 à 8 km
1000 à 3000 ft
1500m à 5 km
500 à 1000 ft
800 à 1500m
200 à 500 ft
< 800m
< 200 ft
Symboles :   Orages  Brouillard  Fortes neiges  Fortes précipitations  Vent > 20 kt
SIGMETs :   Divers  Orages  Givrage  Turbulence  Onde Orograph.  Cendres Volcan.






- Altitude de l'aérodrome : 408 ft
- Code IATA : FKB


EDSB - Karlsruhe Baden Baden

DERNIER METAR :
  • 161250Z 24007KT 210V270 CAVOK 24/14 Q1015

METARs EXPIRÉS :
  • 161220Z 23007KT 200V260 9999 FEW045 SCT054 24/15 Q1015
  • 161150Z 22008KT CAVOK 24/16 Q1015
  • 161120Z 25006KT 220V300 CAVOK 23/15 Q1015
  • 161050Z 23008KT 200V280 9999 FEW047 23/14 Q1015
  • 161020Z 24007KT 200V300 9999 FEW035 23/15 Q1016
  • 160950Z 23009KT 200V260 9999 FEW032 22/16 Q1016
  • 160920Z 21009KT CAVOK 21/15 Q1016
  • 160850Z 21008KT CAVOK 21/15 Q1016
  • 160820Z 22008KT CAVOK 20/16 Q1016

TAF TAF EDSB
Valide du 16 à 12h jusqu'au 17 à 12h UTC


161100Z 1612/1712 22011KT CAVOK
BECMG 1617/1619 24004KT



MET'MAP, la Météo Aéronautique d'un coup d'oeil ! - Copyright ORBIFLY Décembre 2007 - Disclaimer

ORBIFLY MET'MAP TEAM :

Programmation & Développement : Alexandra Zaïnal
Sur une idée originale de : Baudouin d'Aumeries
Soutien technique & logistique : Manuel Goepfert
Assistance : Marc-Olivier Méhu




SOURCES & CREDITS :

   NOAA